sensor_id;sensor_type;location;lat;lon;timestamp;P1;durP1;ratioP1;P2;durP2;ratioP2
21943;SDS011;11136;48.778;9.126;2022-10-31T00:00:17;8.68;;;3.83;;
21943;SDS011;11136;48.778;9.126;2022-10-31T00:02:42;11.82;;;3.78;;
21943;SDS011;11136;48.778;9.126;2022-10-31T00:05:08;14.07;;;4.03;;
21943;SDS011;11136;48.778;9.126;2022-10-31T00:07:33;9.30;;;3.30;;
21943;SDS011;11136;48.778;9.126;2022-10-31T00:09:59;7.70;;;3.83;;
21943;SDS011;11136;48.778;9.126;2022-10-31T00:12:25;8.98;;;3.17;;
21943;SDS011;11136;48.778;9.126;2022-10-31T00:14:51;14.88;;;3.28;;
21943;SDS011;11136;48.778;9.126;2022-10-31T00:17:16;6.28;;;3.17;;
21943;SDS011;11136;48.778;9.126;2022-10-31T00:19:42;9.25;;;2.85;;
21943;SDS011;11136;48.778;9.126;2022-10-31T00:22:08;8.48;;;2.85;;
21943;SDS011;11136;48.778;9.126;2022-10-31T00:24:33;11.73;;;3.40;;
21943;SDS011;11136;48.778;9.126;2022-10-31T00:26:59;12.43;;;3.67;;
21943;SDS011;11136;48.778;9.126;2022-10-31T00:29:24;9.68;;;3.15;;
21943;SDS011;11136;48.778;9.126;2022-10-31T00:31:50;8.60;;;2.42;;
21943;SDS011;11136;48.778;9.126;2022-10-31T00:34:17;8.38;;;3.00;;
21943;SDS011;11136;48.778;9.126;2022-10-31T00:36:42;9.13;;;2.95;;
21943;SDS011;11136;48.778;9.126;2022-10-31T00:39:08;6.70;;;3.20;;
21943;SDS011;11136;48.778;9.126;2022-10-31T00:41:33;4.57;;;2.60;;
21943;SDS011;11136;48.778;9.126;2022-10-31T00:43:59;8.15;;;2.72;;
21943;SDS011;11136;48.778;9.126;2022-10-31T00:46:25;9.15;;;3.58;;
21943;SDS011;11136;48.778;9.126;2022-10-31T00:48:50;7.13;;;2.83;;
21943;SDS011;11136;48.778;9.126;2022-10-31T00:51:15;10.60;;;3.33;;
21943;SDS011;11136;48.778;9.126;2022-10-31T00:53:41;6.97;;;3.50;;
21943;SDS011;11136;48.778;9.126;2022-10-31T00:56:07;9.48;;;2.92;;
21943;SDS011;11136;48.778;9.126;2022-10-31T00:58:32;9.23;;;2.92;;
21943;SDS011;11136;48.778;9.126;2022-10-31T01:00:58;6.88;;;2.50;;
21943;SDS011;11136;48.778;9.126;2022-10-31T01:03:24;7.70;;;3.00;;
21943;SDS011;11136;48.778;9.126;2022-10-31T01:05:55;8.77;;;3.03;;
21943;SDS011;11136;48.778;9.126;2022-10-31T01:08:28;8.52;;;3.03;;
21943;SDS011;11136;48.778;9.126;2022-10-31T01:10:58;8.30;;;3.03;;
21943;SDS011;11136;48.778;9.126;2022-10-31T01:13:29;9.15;;;2.72;;
21943;SDS011;11136;48.778;9.126;2022-10-31T01:15:58;8.88;;;3.17;;
21943;SDS011;11136;48.778;9.126;2022-10-31T01:18:24;8.32;;;2.92;;
21943;SDS011;11136;48.778;9.126;2022-10-31T01:21:00;10.88;;;3.20;;
21943;SDS011;11136;48.778;9.126;2022-10-31T01:23:37;5.63;;;2.03;;
21943;SDS011;11136;48.778;9.126;2022-10-31T01:26:04;5.30;;;2.65;;
21943;SDS011;11136;48.778;9.126;2022-10-31T01:28:32;5.13;;;2.40;;
21943;SDS011;11136;48.778;9.126;2022-10-31T01:31:02;7.60;;;2.90;;
21943;SDS011;11136;48.778;9.126;2022-10-31T01:33:29;5.72;;;2.95;;
21943;SDS011;11136;48.778;9.126;2022-10-31T01:35:55;5.82;;;2.75;;
21943;SDS011;11136;48.778;9.126;2022-10-31T01:38:21;7.65;;;2.60;;
21943;SDS011;11136;48.778;9.126;2022-10-31T01:40:48;13.20;;;2.63;;
21943;SDS011;11136;48.778;9.126;2022-10-31T01:43:14;7.82;;;2.80;;
21943;SDS011;11136;48.778;9.126;2022-10-31T01:45:43;9.23;;;3.40;;
21943;SDS011;11136;48.778;9.126;2022-10-31T01:48:15;4.45;;;2.42;;
21943;SDS011;11136;48.778;9.126;2022-10-31T01:50:43;8.52;;;2.60;;
21943;SDS011;11136;48.778;9.126;2022-10-31T01:53:11;3.70;;;2.50;;
21943;SDS011;11136;48.778;9.126;2022-10-31T01:55:38;5.55;;;2.50;;
21943;SDS011;11136;48.778;9.126;2022-10-31T01:58:11;14.18;;;3.33;;
21943;SDS011;11136;48.778;9.126;2022-10-31T02:00:39;9.25;;;2.88;;
21943;SDS011;11136;48.778;9.126;2022-10-31T02:03:08;7.60;;;2.80;;
21943;SDS011;11136;48.778;9.126;2022-10-31T02:05:34;10.63;;;2.90;;
21943;SDS011;11136;48.778;9.126;2022-10-31T02:08:08;10.48;;;2.60;;
21943;SDS011;11136;48.778;9.126;2022-10-31T02:10:41;8.18;;;3.08;;
21943;SDS011;11136;48.778;9.126;2022-10-31T02:13:08;7.55;;;3.17;;
21943;SDS011;11136;48.778;9.126;2022-10-31T02:15:34;5.55;;;2.88;;
21943;SDS011;11136;48.778;9.126;2022-10-31T02:18:02;8.68;;;3.63;;
21943;SDS011;11136;48.778;9.126;2022-10-31T02:20:40;5.63;;;2.97;;
21943;SDS011;11136;48.778;9.126;2022-10-31T02:35:10;6.75;;;2.80;;
21943;SDS011;11136;48.778;9.126;2022-10-31T02:38:13;7.57;;;2.63;;
21943;SDS011;11136;48.778;9.126;2022-10-31T02:41:10;7.25;;;2.30;;
21943;SDS011;11136;48.778;9.126;2022-10-31T02:44:13;8.38;;;3.72;;
21943;SDS011;11136;48.778;9.126;2022-10-31T02:46:53;7.63;;;2.83;;
21943;SDS011;11136;48.778;9.126;2022-10-31T02:54:44;10.52;;;3.03;;
21943;SDS011;11136;48.778;9.126;2022-10-31T02:57:11;8.23;;;2.55;;
21943;SDS011;11136;48.778;9.126;2022-10-31T02:59:38;9.93;;;2.95;;
21943;SDS011;11136;48.778;9.126;2022-10-31T03:02:15;3.97;;;2.28;;
21943;SDS011;11136;48.778;9.126;2022-10-31T03:07:30;3.78;;;2.55;;
21943;SDS011;11136;48.778;9.126;2022-10-31T03:13:05;8.75;;;2.70;;
21943;SDS011;11136;48.778;9.126;2022-10-31T03:15:50;3.85;;;2.17;;
21943;SDS011;11136;48.778;9.126;2022-10-31T03:18:29;10.50;;;3.08;;
21943;SDS011;11136;48.778;9.126;2022-10-31T03:21:10;5.32;;;2.83;;
21943;SDS011;11136;48.778;9.126;2022-10-31T03:23:39;8.20;;;3.17;;
21943;SDS011;11136;48.778;9.126;2022-10-31T03:26:07;8.40;;;3.03;;
21943;SDS011;11136;48.778;9.126;2022-10-31T03:28:36;8.85;;;2.85;;
21943;SDS011;11136;48.778;9.126;2022-10-31T03:31:23;5.65;;;2.78;;
21943;SDS011;11136;48.778;9.126;2022-10-31T03:33:54;6.82;;;2.78;;
21943;SDS011;11136;48.778;9.126;2022-10-31T03:36:23;7.28;;;2.90;;
21943;SDS011;11136;48.778;9.126;2022-10-31T03:38:50;8.93;;;2.78;;
21943;SDS011;11136;48.778;9.126;2022-10-31T03:41:18;5.57;;;2.72;;
21943;SDS011;11136;48.778;9.126;2022-10-31T03:43:49;11.02;;;2.88;;
21943;SDS011;11136;48.778;9.126;2022-10-31T03:46:20;5.68;;;2.30;;
21943;SDS011;11136;48.778;9.126;2022-10-31T03:48:46;4.90;;;2.67;;
21943;SDS011;11136;48.778;9.126;2022-10-31T03:51:19;11.80;;;3.53;;
21943;SDS011;11136;48.778;9.126;2022-10-31T03:56:22;8.57;;;3.22;;
21943;SDS011;11136;48.778;9.126;2022-10-31T03:58:59;10.20;;;2.70;;
21943;SDS011;11136;48.778;9.126;2022-10-31T04:01:29;8.05;;;3.28;;
21943;SDS011;11136;48.778;9.126;2022-10-31T04:03:57;5.85;;;2.45;;
21943;SDS011;11136;48.778;9.126;2022-10-31T04:06:24;7.43;;;2.60;;
21943;SDS011;11136;48.778;9.126;2022-10-31T04:08:51;8.38;;;3.30;;
21943;SDS011;11136;48.778;9.126;2022-10-31T04:11:23;9.77;;;2.83;;
21943;SDS011;11136;48.778;9.126;2022-10-31T04:16:19;5.32;;;2.80;;
21943;SDS011;11136;48.778;9.126;2022-10-31T04:18:46;6.80;;;3.10;;
21943;SDS011;11136;48.778;9.126;2022-10-31T04:21:12;6.05;;;2.97;;
21943;SDS011;11136;48.778;9.126;2022-10-31T04:23:38;7.75;;;2.70;;
21943;SDS011;11136;48.778;9.126;2022-10-31T04:26:03;5.55;;;2.95;;
21943;SDS011;11136;48.778;9.126;2022-10-31T04:28:29;8.57;;;3.33;;
21943;SDS011;11136;48.778;9.126;2022-10-31T04:30:54;6.50;;;3.17;;
21943;SDS011;11136;48.778;9.126;2022-10-31T04:33:20;7.20;;;2.97;;
21943;SDS011;11136;48.778;9.126;2022-10-31T04:35:45;5.93;;;3.38;;
21943;SDS011;11136;48.778;9.126;2022-10-31T04:38:12;7.28;;;3.15;;
21943;SDS011;11136;48.778;9.126;2022-10-31T04:40:38;6.32;;;2.70;;
21943;SDS011;11136;48.778;9.126;2022-10-31T04:43:03;4.82;;;2.42;;
21943;SDS011;11136;48.778;9.126;2022-10-31T04:45:29;8.07;;;2.65;;
21943;SDS011;11136;48.778;9.126;2022-10-31T04:47:54;5.78;;;2.78;;
21943;SDS011;11136;48.778;9.126;2022-10-31T04:50:20;9.15;;;2.88;;
21943;SDS011;11136;48.778;9.126;2022-10-31T04:52:45;6.20;;;3.22;;
21943;SDS011;11136;48.778;9.126;2022-10-31T04:55:11;4.60;;;2.97;;
21943;SDS011;11136;48.778;9.126;2022-10-31T04:57:41;14.30;;;3.28;;
21943;SDS011;11136;48.778;9.126;2022-10-31T05:00:11;7.85;;;2.83;;
21943;SDS011;11136;48.778;9.126;2022-10-31T05:02:51;8.30;;;3.30;;
21943;SDS011;11136;48.778;9.126;2022-10-31T05:05:20;7.35;;;3.00;;
21943;SDS011;11136;48.778;9.126;2022-10-31T05:07:53;5.95;;;2.60;;
21943;SDS011;11136;48.778;9.126;2022-10-31T05:10:20;5.45;;;3.33;;
21943;SDS011;11136;48.778;9.126;2022-10-31T05:12:54;10.25;;;2.97;;
21943;SDS011;11136;48.778;9.126;2022-10-31T05:15:22;4.63;;;2.38;;
21943;SDS011;11136;48.778;9.126;2022-10-31T05:17:49;13.00;;;3.13;;
21943;SDS011;11136;48.778;9.126;2022-10-31T05:20:16;7.93;;;2.88;;
21943;SDS011;11136;48.778;9.126;2022-10-31T05:22:43;12.40;;;2.65;;
21943;SDS011;11136;48.778;9.126;2022-10-31T05:25:10;5.13;;;3.45;;
21943;SDS011;11136;48.778;9.126;2022-10-31T05:27:40;6.00;;;3.00;;
21943;SDS011;11136;48.778;9.126;2022-10-31T05:30:07;5.65;;;2.65;;
21943;SDS011;11136;48.778;9.126;2022-10-31T05:32:40;5.25;;;2.65;;
21943;SDS011;11136;48.778;9.126;2022-10-31T05:35:07;7.88;;;3.00;;
21943;SDS011;11136;48.778;9.126;2022-10-31T05:37:35;7.75;;;3.10;;
21943;SDS011;11136;48.778;9.126;2022-10-31T05:40:01;5.93;;;2.80;;
21943;SDS011;11136;48.778;9.126;2022-10-31T05:42:30;8.68;;;3.28;;
21943;SDS011;11136;48.778;9.126;2022-10-31T05:44:56;7.07;;;3.10;;
21943;SDS011;11136;48.778;9.126;2022-10-31T05:47:21;6.88;;;2.80;;
21943;SDS011;11136;48.778;9.126;2022-10-31T05:49:47;9.02;;;2.90;;
21943;SDS011;11136;48.778;9.126;2022-10-31T05:52:13;6.63;;;2.83;;
21943;SDS011;11136;48.778;9.126;2022-10-31T05:54:39;6.95;;;3.42;;
21943;SDS011;11136;48.778;9.126;2022-10-31T05:57:04;5.80;;;3.17;;
21943;SDS011;11136;48.778;9.126;2022-10-31T05:59:30;5.82;;;3.00;;
21943;SDS011;11136;48.778;9.126;2022-10-31T06:01:55;7.90;;;3.10;;
21943;SDS011;11136;48.778;9.126;2022-10-31T06:04:21;9.00;;;2.83;;
21943;SDS011;11136;48.778;9.126;2022-10-31T06:06:46;9.05;;;3.30;;
21943;SDS011;11136;48.778;9.126;2022-10-31T06:09:12;6.38;;;2.80;;
21943;SDS011;11136;48.778;9.126;2022-10-31T06:11:37;5.22;;;3.28;;
21943;SDS011;11136;48.778;9.126;2022-10-31T06:14:03;4.53;;;3.22;;
21943;SDS011;11136;48.778;9.126;2022-10-31T06:16:29;7.05;;;3.20;;
21943;SDS011;11136;48.778;9.126;2022-10-31T06:18:55;9.73;;;3.53;;
21943;SDS011;11136;48.778;9.126;2022-10-31T06:21:21;7.05;;;2.63;;
21943;SDS011;11136;48.778;9.126;2022-10-31T06:23:46;10.93;;;3.58;;
21943;SDS011;11136;48.778;9.126;2022-10-31T06:26:12;7.75;;;3.30;;
21943;SDS011;11136;48.778;9.126;2022-10-31T06:28:37;6.78;;;3.30;;
21943;SDS011;11136;48.778;9.126;2022-10-31T06:31:03;6.70;;;3.42;;
21943;SDS011;11136;48.778;9.126;2022-10-31T06:33:29;8.43;;;2.85;;
21943;SDS011;11136;48.778;9.126;2022-10-31T06:35:54;9.23;;;3.42;;
21943;SDS011;11136;48.778;9.126;2022-10-31T06:38:20;8.07;;;3.33;;
21943;SDS011;11136;48.778;9.126;2022-10-31T06:40:45;7.72;;;2.70;;
21943;SDS011;11136;48.778;9.126;2022-10-31T06:43:11;7.40;;;3.38;;
21943;SDS011;11136;48.778;9.126;2022-10-31T06:45:37;8.23;;;3.45;;
21943;SDS011;11136;48.778;9.126;2022-10-31T06:48:02;7.30;;;3.65;;
21943;SDS011;11136;48.778;9.126;2022-10-31T06:50:29;10.15;;;2.78;;
21943;SDS011;11136;48.778;9.126;2022-10-31T06:52:56;8.07;;;3.90;;
21943;SDS011;11136;48.778;9.126;2022-10-31T06:55:23;10.90;;;3.58;;
21943;SDS011;11136;48.778;9.126;2022-10-31T06:57:53;12.43;;;3.88;;
21943;SDS011;11136;48.778;9.126;2022-10-31T07:00:20;9.40;;;4.43;;
21943;SDS011;11136;48.778;9.126;2022-10-31T07:05:21;11.13;;;3.78;;
21943;SDS011;11136;48.778;9.126;2022-10-31T07:07:47;6.20;;;3.30;;
21943;SDS011;11136;48.778;9.126;2022-10-31T07:10:12;8.98;;;3.85;;
21943;SDS011;11136;48.778;9.126;2022-10-31T07:12:38;9.32;;;4.93;;
21943;SDS011;11136;48.778;9.126;2022-10-31T07:15:04;8.20;;;4.80;;
21943;SDS011;11136;48.778;9.126;2022-10-31T07:17:30;8.23;;;4.97;;
21943;SDS011;11136;48.778;9.126;2022-10-31T07:19:55;6.25;;;3.83;;
21943;SDS011;11136;48.778;9.126;2022-10-31T07:22:21;6.00;;;3.88;;
21943;SDS011;11136;48.778;9.126;2022-10-31T07:24:46;8.52;;;4.25;;
21943;SDS011;11136;48.778;9.126;2022-10-31T07:27:12;9.48;;;4.03;;
21943;SDS011;11136;48.778;9.126;2022-10-31T07:29:37;8.45;;;3.90;;
21943;SDS011;11136;48.778;9.126;2022-10-31T07:32:03;7.18;;;3.42;;
21943;SDS011;11136;48.778;9.126;2022-10-31T07:34:29;5.07;;;3.15;;
21943;SDS011;11136;48.778;9.126;2022-10-31T07:36:54;10.90;;;3.78;;
21943;SDS011;11136;48.778;9.126;2022-10-31T07:39:20;5.90;;;3.53;;
21943;SDS011;11136;48.778;9.126;2022-10-31T07:41:45;8.05;;;3.00;;
21943;SDS011;11136;48.778;9.126;2022-10-31T07:44:11;8.25;;;3.85;;
21943;SDS011;11136;48.778;9.126;2022-10-31T07:46:36;9.50;;;5.05;;
21943;SDS011;11136;48.778;9.126;2022-10-31T07:49:02;19.83;;;6.15;;
21943;SDS011;11136;48.778;9.126;2022-10-31T07:51:28;15.15;;;5.43;;
21943;SDS011;11136;48.778;9.126;2022-10-31T07:53:54;12.70;;;6.53;;
21943;SDS011;11136;48.778;9.126;2022-10-31T07:56:19;11.70;;;5.43;;
21943;SDS011;11136;48.778;9.126;2022-10-31T07:58:45;12.68;;;5.22;;
21943;SDS011;11136;48.778;9.126;2022-10-31T08:01:10;9.02;;;5.35;;
21943;SDS011;11136;48.778;9.126;2022-10-31T08:03:36;10.60;;;5.03;;
21943;SDS011;11136;48.778;9.126;2022-10-31T08:06:01;8.93;;;4.93;;
21943;SDS011;11136;48.778;9.126;2022-10-31T08:08:27;11.38;;;4.80;;
21943;SDS011;11136;48.778;9.126;2022-10-31T08:10:53;12.10;;;5.18;;
21943;SDS011;11136;48.778;9.126;2022-10-31T08:13:19;15.85;;;7.32;;
21943;SDS011;11136;48.778;9.126;2022-10-31T08:15:45;12.43;;;5.50;;
21943;SDS011;11136;48.778;9.126;2022-10-31T08:18:15;12.43;;;5.28;;
21943;SDS011;11136;48.778;9.126;2022-10-31T08:20:41;14.25;;;6.15;;
21943;SDS011;11136;48.778;9.126;2022-10-31T08:23:08;18.77;;;6.50;;
21943;SDS011;11136;48.778;9.126;2022-10-31T08:25:35;14.00;;;7.05;;
21943;SDS011;11136;48.778;9.126;2022-10-31T08:28:01;20.38;;;6.22;;
21943;SDS011;11136;48.778;9.126;2022-10-31T08:30:28;21.73;;;5.45;;
21943;SDS011;11136;48.778;9.126;2022-10-31T08:35:33;9.07;;;4.32;;
21943;SDS011;11136;48.778;9.126;2022-10-31T08:37:58;12.82;;;5.10;;
21943;SDS011;11136;48.778;9.126;2022-10-31T08:40:25;9.20;;;4.55;;
21943;SDS011;11136;48.778;9.126;2022-10-31T08:42:58;9.55;;;5.05;;
21943;SDS011;11136;48.778;9.126;2022-10-31T08:45:25;13.07;;;4.80;;
21943;SDS011;11136;48.778;9.126;2022-10-31T08:47:51;8.20;;;5.22;;
21943;SDS011;11136;48.778;9.126;2022-10-31T08:50:17;10.27;;;4.88;;
21943;SDS011;11136;48.778;9.126;2022-10-31T08:52:43;10.55;;;5.38;;
21943;SDS011;11136;48.778;9.126;2022-10-31T08:55:09;9.60;;;5.78;;
21943;SDS011;11136;48.778;9.126;2022-10-31T08:57:34;12.30;;;5.45;;
21943;SDS011;11136;48.778;9.126;2022-10-31T09:00:00;10.43;;;5.78;;
21943;SDS011;11136;48.778;9.126;2022-10-31T09:02:25;10.82;;;5.65;;
21943;SDS011;11136;48.778;9.126;2022-10-31T09:04:51;14.50;;;6.22;;
21943;SDS011;11136;48.778;9.126;2022-10-31T09:07:16;10.73;;;5.05;;
21943;SDS011;11136;48.778;9.126;2022-10-31T09:09:42;15.43;;;5.70;;
21943;SDS011;11136;48.778;9.126;2022-10-31T09:12:07;16.55;;;6.28;;
21943;SDS011;11136;48.778;9.126;2022-10-31T09:14:33;10.40;;;5.35;;
21943;SDS011;11136;48.778;9.126;2022-10-31T09:16:59;13.45;;;6.63;;
21943;SDS011;11136;48.778;9.126;2022-10-31T09:19:24;12.02;;;5.93;;
21943;SDS011;11136;48.778;9.126;2022-10-31T09:21:53;14.50;;;6.63;;
21943;SDS011;11136;48.778;9.126;2022-10-31T09:24:19;12.38;;;5.97;;
21943;SDS011;11136;48.778;9.126;2022-10-31T09:26:45;10.68;;;5.90;;
21943;SDS011;11136;48.778;9.126;2022-10-31T09:29:10;9.15;;;5.15;;
21943;SDS011;11136;48.778;9.126;2022-10-31T09:31:36;11.20;;;5.68;;
21943;SDS011;11136;48.778;9.126;2022-10-31T09:34:01;11.70;;;6.63;;
21943;SDS011;11136;48.778;9.126;2022-10-31T09:36:27;12.65;;;5.68;;
21943;SDS011;11136;48.778;9.126;2022-10-31T09:38:53;10.27;;;5.70;;
21943;SDS011;11136;48.778;9.126;2022-10-31T09:44:19;14.10;;;6.75;;
21943;SDS011;11136;48.778;9.126;2022-10-31T09:47:12;19.17;;;6.40;;
21943;SDS011;11136;48.778;9.126;2022-10-31T09:52:28;13.95;;;5.63;;
21943;SDS011;11136;48.778;9.126;2022-10-31T09:54:59;15.10;;;5.97;;
21943;SDS011;11136;48.778;9.126;2022-10-31T09:57:47;11.60;;;7.53;;
21943;SDS011;11136;48.778;9.126;2022-10-31T10:00:18;9.82;;;6.45;;
21943;SDS011;11136;48.778;9.126;2022-10-31T10:08:13;9.60;;;5.78;;
21943;SDS011;11136;48.778;9.126;2022-10-31T10:10:52;17.08;;;6.10;;
21943;SDS011;11136;48.778;9.126;2022-10-31T10:13:42;12.30;;;6.10;;
21943;SDS011;11136;48.778;9.126;2022-10-31T10:16:24;15.60;;;6.22;;
21943;SDS011;11136;48.778;9.126;2022-10-31T10:30:16;16.10;;;6.47;;
21943;SDS011;11136;48.778;9.126;2022-10-31T10:38:03;14.13;;;5.65;;
21943;SDS011;11136;48.778;9.126;2022-10-31T10:40:39;14.05;;;5.47;;
21943;SDS011;11136;48.778;9.126;2022-10-31T10:45:49;11.40;;;5.00;;
21943;SDS011;11136;48.778;9.126;2022-10-31T10:48:38;11.77;;;6.10;;
21943;SDS011;11136;48.778;9.126;2022-10-31T10:59:55;10.10;;;6.03;;
21943;SDS011;11136;48.778;9.126;2022-10-31T11:02:23;13.43;;;5.97;;
21943;SDS011;11136;48.778;9.126;2022-10-31T11:04:54;13.15;;;6.18;;
21943;SDS011;11136;48.778;9.126;2022-10-31T11:07:22;17.20;;;5.43;;
21943;SDS011;11136;48.778;9.126;2022-10-31T11:09:48;14.60;;;5.57;;
21943;SDS011;11136;48.778;9.126;2022-10-31T11:14:47;12.10;;;5.70;;
21943;SDS011;11136;48.778;9.126;2022-10-31T11:17:29;19.00;;;7.80;;
21943;SDS011;11136;48.778;9.126;2022-10-31T11:19:59;8.55;;;5.70;;
21943;SDS011;11136;48.778;9.126;2022-10-31T11:22:29;13.82;;;6.32;;
21943;SDS011;11136;48.778;9.126;2022-10-31T11:24:55;13.05;;;5.80;;
21943;SDS011;11136;48.778;9.126;2022-10-31T11:27:22;13.57;;;5.88;;
21943;SDS011;11136;48.778;9.126;2022-10-31T11:29:49;11.65;;;6.30;;
21943;SDS011;11136;48.778;9.126;2022-10-31T11:32:22;9.80;;;6.00;;
21943;SDS011;11136;48.778;9.126;2022-10-31T11:34:59;14.15;;;5.70;;
21943;SDS011;11136;48.778;9.126;2022-10-31T11:37:28;10.57;;;5.85;;
21943;SDS011;11136;48.778;9.126;2022-10-31T11:40:02;16.25;;;5.18;;
21943;SDS011;11136;48.778;9.126;2022-10-31T11:42:34;12.40;;;5.43;;
21943;SDS011;11136;48.778;9.126;2022-10-31T11:45:13;11.68;;;5.28;;
21943;SDS011;11136;48.778;9.126;2022-10-31T11:47:41;12.02;;;5.07;;
21943;SDS011;11136;48.778;9.126;2022-10-31T11:50:17;9.30;;;5.00;;
21943;SDS011;11136;48.778;9.126;2022-10-31T11:52:47;12.93;;;5.65;;
21943;SDS011;11136;48.778;9.126;2022-10-31T11:55:17;11.40;;;4.32;;
21943;SDS011;11136;48.778;9.126;2022-10-31T11:57:56;13.73;;;5.03;;
21943;SDS011;11136;48.778;9.126;2022-10-31T12:00:32;15.35;;;5.07;;
21943;SDS011;11136;48.778;9.126;2022-10-31T12:08:33;13.25;;;5.00;;
21943;SDS011;11136;48.778;9.126;2022-10-31T12:14:00;8.65;;;4.50;;
21943;SDS011;11136;48.778;9.126;2022-10-31T12:25:04;13.55;;;5.20;;
21943;SDS011;11136;48.778;9.126;2022-10-31T12:27:53;16.42;;;5.15;;
21943;SDS011;11136;48.778;9.126;2022-10-31T12:38:39;9.48;;;4.53;;
21943;SDS011;11136;48.778;9.126;2022-10-31T12:41:22;10.05;;;5.28;;
21943;SDS011;11136;48.778;9.126;2022-10-31T12:44:14;12.98;;;6.03;;
21943;SDS011;11136;48.778;9.126;2022-10-31T12:58:15;12.68;;;5.38;;
21943;SDS011;11136;48.778;9.126;2022-10-31T13:00:48;10.50;;;4.95;;
21943;SDS011;11136;48.778;9.126;2022-10-31T13:05:45;13.50;;;6.10;;
21943;SDS011;11136;48.778;9.126;2022-10-31T13:10:47;11.23;;;5.28;;
21943;SDS011;11136;48.778;9.126;2022-10-31T13:16:28;15.65;;;5.80;;
21943;SDS011;11136;48.778;9.126;2022-10-31T13:21:34;8.82;;;5.28;;
21943;SDS011;11136;48.778;9.126;2022-10-31T13:24:04;12.10;;;6.00;;
21943;SDS011;11136;48.778;9.126;2022-10-31T13:26:44;16.30;;;5.43;;
21943;SDS011;11136;48.778;9.126;2022-10-31T13:29:19;18.40;;;6.25;;
21943;SDS011;11136;48.778;9.126;2022-10-31T13:31:51;17.35;;;6.43;;
21943;SDS011;11136;48.778;9.126;2022-10-31T13:37:03;13.68;;;6.97;;
21943;SDS011;11136;48.778;9.126;2022-10-31T13:45:50;16.58;;;6.50;;
21943;SDS011;11136;48.778;9.126;2022-10-31T13:48:19;17.58;;;6.75;;
21943;SDS011;11136;48.778;9.126;2022-10-31T13:51:23;12.60;;;6.47;;
21943;SDS011;11136;48.778;9.126;2022-10-31T13:54:19;12.35;;;5.50;;
21943;SDS011;11136;48.778;9.126;2022-10-31T13:56:56;15.35;;;6.13;;
21943;SDS011;11136;48.778;9.126;2022-10-31T13:59:22;12.50;;;7.18;;
21943;SDS011;11136;48.778;9.126;2022-10-31T14:01:54;14.18;;;6.05;;
21943;SDS011;11136;48.778;9.126;2022-10-31T14:06:52;10.02;;;5.38;;
21943;SDS011;11136;48.778;9.126;2022-10-31T14:09:20;13.02;;;6.15;;
21943;SDS011;11136;48.778;9.126;2022-10-31T14:11:52;18.48;;;8.27;;
21943;SDS011;11136;48.778;9.126;2022-10-31T14:14:18;15.68;;;6.22;;
21943;SDS011;11136;48.778;9.126;2022-10-31T14:16:45;16.85;;;6.05;;
21943;SDS011;11136;48.778;9.126;2022-10-31T14:19:18;13.95;;;6.03;;
21943;SDS011;11136;48.778;9.126;2022-10-31T14:22:18;12.07;;;5.45;;
21943;SDS011;11136;48.778;9.126;2022-10-31T14:24:46;13.63;;;6.97;;
21943;SDS011;11136;48.778;9.126;2022-10-31T14:29:50;16.38;;;6.75;;
21943;SDS011;11136;48.778;9.126;2022-10-31T14:32:23;14.50;;;6.32;;
21943;SDS011;11136;48.778;9.126;2022-10-31T14:45:52;11.85;;;5.90;;
21943;SDS011;11136;48.778;9.126;2022-10-31T14:51:18;14.93;;;6.38;;
21943;SDS011;11136;48.778;9.126;2022-10-31T14:53:49;12.77;;;6.32;;
21943;SDS011;11136;48.778;9.126;2022-10-31T14:58:57;12.27;;;6.47;;
21943;SDS011;11136;48.778;9.126;2022-10-31T15:01:26;19.88;;;7.47;;
21943;SDS011;11136;48.778;9.126;2022-10-31T15:03:55;23.17;;;7.20;;
21943;SDS011;11136;48.778;9.126;2022-10-31T15:06:29;22.90;;;7.65;;
21943;SDS011;11136;48.778;9.126;2022-10-31T15:09:03;16.02;;;5.95;;
21943;SDS011;11136;48.778;9.126;2022-10-31T15:11:28;10.80;;;5.35;;
21943;SDS011;11136;48.778;9.126;2022-10-31T15:14:05;14.20;;;6.05;;
21943;SDS011;11136;48.778;9.126;2022-10-31T15:17:03;15.40;;;5.72;;
21943;SDS011;11136;48.778;9.126;2022-10-31T15:19:30;13.20;;;5.30;;
21943;SDS011;11136;48.778;9.126;2022-10-31T15:21:58;10.32;;;5.38;;
21943;SDS011;11136;48.778;9.126;2022-10-31T15:24:27;12.68;;;5.55;;
21943;SDS011;11136;48.778;9.126;2022-10-31T15:26:58;12.02;;;5.35;;
21943;SDS011;11136;48.778;9.126;2022-10-31T15:29:26;14.18;;;6.47;;
21943;SDS011;11136;48.778;9.126;2022-10-31T15:34:27;13.60;;;5.30;;
21943;SDS011;11136;48.778;9.126;2022-10-31T15:37:00;11.90;;;4.72;;
21943;SDS011;11136;48.778;9.126;2022-10-31T15:39:26;12.63;;;6.03;;
21943;SDS011;11136;48.778;9.126;2022-10-31T15:41:53;11.77;;;5.60;;
21943;SDS011;11136;48.778;9.126;2022-10-31T15:44:26;14.35;;;5.15;;
21943;SDS011;11136;48.778;9.126;2022-10-31T15:46:54;17.25;;;5.97;;
21943;SDS011;11136;48.778;9.126;2022-10-31T15:51:53;10.48;;;5.30;;
21943;SDS011;11136;48.778;9.126;2022-10-31T15:54:19;10.85;;;5.45;;
21943;SDS011;11136;48.778;9.126;2022-10-31T15:56:45;18.42;;;5.00;;
21943;SDS011;11136;48.778;9.126;2022-10-31T15:59:12;13.35;;;5.18;;
21943;SDS011;11136;48.778;9.126;2022-10-31T16:02:01;15.57;;;5.88;;
21943;SDS011;11136;48.778;9.126;2022-10-31T16:04:29;17.52;;;5.57;;
21943;SDS011;11136;48.778;9.126;2022-10-31T16:06:59;11.45;;;5.60;;
21943;SDS011;11136;48.778;9.126;2022-10-31T16:09:47;12.43;;;5.50;;
21943;SDS011;11136;48.778;9.126;2022-10-31T16:12:21;14.23;;;5.32;;
21943;SDS011;11136;48.778;9.126;2022-10-31T16:14:48;10.07;;;4.65;;
21943;SDS011;11136;48.778;9.126;2022-10-31T16:17:19;10.83;;;4.80;;
21943;SDS011;11136;48.778;9.126;2022-10-31T16:19:54;12.40;;;5.43;;
21943;SDS011;11136;48.778;9.126;2022-10-31T16:22:28;12.25;;;4.97;;
21943;SDS011;11136;48.778;9.126;2022-10-31T16:27:39;9.88;;;5.55;;
21943;SDS011;11136;48.778;9.126;2022-10-31T16:33:25;14.82;;;4.60;;
21943;SDS011;11136;48.778;9.126;2022-10-31T16:38:52;12.77;;;5.13;;
21943;SDS011;11136;48.778;9.126;2022-10-31T16:41:18;12.82;;;5.25;;
21943;SDS011;11136;48.778;9.126;2022-10-31T16:43:45;10.30;;;5.15;;
21943;SDS011;11136;48.778;9.126;2022-10-31T16:46:18;13.55;;;4.97;;
21943;SDS011;11136;48.778;9.126;2022-10-31T16:48:52;12.32;;;4.53;;
21943;SDS011;11136;48.778;9.126;2022-10-31T16:51:18;10.02;;;4.55;;
21943;SDS011;11136;48.778;9.126;2022-10-31T16:53:44;9.73;;;4.50;;
21943;SDS011;11136;48.778;9.126;2022-10-31T16:56:17;10.02;;;4.50;;
21943;SDS011;11136;48.778;9.126;2022-10-31T16:58:48;7.18;;;3.83;;
21943;SDS011;11136;48.778;9.126;2022-10-31T17:01:15;14.15;;;4.68;;
21943;SDS011;11136;48.778;9.126;2022-10-31T17:03:41;9.93;;;4.97;;
21943;SDS011;11136;48.778;9.126;2022-10-31T17:06:11;13.00;;;4.90;;
21943;SDS011;11136;48.778;9.126;2022-10-31T17:11:04;11.68;;;6.45;;
21943;SDS011;11136;48.778;9.126;2022-10-31T17:13:31;18.10;;;6.32;;
21943;SDS011;11136;48.778;9.126;2022-10-31T17:15:59;13.07;;;6.05;;
21943;SDS011;11136;48.778;9.126;2022-10-31T17:18:27;7.97;;;4.68;;
21943;SDS011;11136;48.778;9.126;2022-10-31T17:20:58;8.23;;;4.65;;
21943;SDS011;11136;48.778;9.126;2022-10-31T17:23:26;16.50;;;9.82;;
21943;SDS011;11136;48.778;9.126;2022-10-31T17:25:52;15.60;;;8.02;;
21943;SDS011;11136;48.778;9.126;2022-10-31T17:28:18;19.83;;;8.38;;
21943;SDS011;11136;48.778;9.126;2022-10-31T17:30:44;12.02;;;5.35;;
21943;SDS011;11136;48.778;9.126;2022-10-31T17:33:14;16.45;;;6.70;;
21943;SDS011;11136;48.778;9.126;2022-10-31T17:35:41;11.68;;;7.32;;
21943;SDS011;11136;48.778;9.126;2022-10-31T17:38:08;17.23;;;7.05;;
21943;SDS011;11136;48.778;9.126;2022-10-31T17:40:35;23.30;;;10.07;;
21943;SDS011;11136;48.778;9.126;2022-10-31T17:43:02;15.18;;;7.82;;